createdAt,value
2019-01-20T00:00:33.948Z,81.20
2019-01-20T00:01:33.939Z,80.93
2019-01-20T00:02:33.901Z,81.13
2019-01-20T00:03:33.915Z,81.13
2019-01-20T00:04:33.913Z,81.03
2019-01-20T00:05:33.939Z,81.24
2019-01-20T00:06:33.888Z,81.35
2019-01-20T00:07:33.869Z,81.77
2019-01-20T00:08:33.846Z,81.91
2019-01-20T00:09:33.833Z,82.08
2019-01-20T00:10:33.859Z,81.45
2019-01-20T00:11:33.841Z,81.28
2019-01-20T00:12:33.802Z,81.17
2019-01-20T00:13:33.989Z,81.07
2019-01-20T00:14:33.810Z,80.96
2019-01-20T00:15:33.777Z,81.07
2019-01-20T00:16:33.752Z,81.70
2019-01-20T00:17:33.748Z,81.28
2019-01-20T00:18:33.769Z,81.81
2019-01-20T00:19:33.734Z,82.65
2019-01-20T00:20:33.812Z,82.33
2019-01-20T00:21:33.723Z,82.47
2019-01-20T00:22:33.731Z,82.43
2019-01-20T00:23:33.705Z,82.86
2019-01-20T00:24:33.667Z,82.43
2019-01-20T00:25:33.845Z,82.75
2019-01-20T00:26:33.661Z,82.54
2019-01-20T00:27:33.628Z,82.26
2019-01-20T00:28:33.734Z,82.26
2019-01-20T00:29:33.622Z,82.37
2019-01-20T00:30:33.643Z,82.58
2019-01-20T00:31:33.618Z,82.23
2019-01-20T00:32:33.611Z,82.23
2019-01-20T00:33:33.566Z,81.38
2019-01-20T00:34:33.672Z,81.28
2019-01-20T00:35:33.537Z,80.96
2019-01-20T00:36:33.528Z,80.33
2019-01-20T00:37:33.530Z,80.12
2019-01-20T00:38:33.525Z,79.60
2019-01-20T00:39:33.593Z,78.86
2019-01-20T00:40:33.514Z,78.64
2019-01-20T00:41:33.572Z,78.33
2019-01-20T00:42:33.486Z,78.12
2019-01-20T00:43:33.452Z,78.47
2019-01-20T00:44:33.458Z,78.16
2019-01-20T00:45:33.499Z,78.89
2019-01-20T00:46:33.429Z,80.36
2019-01-20T00:47:33.444Z,79.52
2019-01-20T00:48:33.414Z,80.16
2019-01-20T00:49:33.389Z,80.30
2019-01-20T00:50:33.435Z,80.68
2019-01-20T00:51:33.450Z,80.58
2019-01-20T00:52:33.361Z,80.19
2019-01-20T00:53:33.366Z,80.40
2019-01-20T00:54:33.346Z,81.04
2019-01-20T00:55:33.335Z,81.14
2019-01-20T00:56:33.356Z,81.63
2019-01-20T00:57:33.436Z,82.16
2019-01-20T00:58:33.302Z,82.26
2019-01-20T00:59:33.290Z,82.30
2019-01-20T01:00:33.316Z,82.62
2019-01-20T01:01:33.278Z,83.00
2019-01-20T01:02:33.242Z,82.82
2019-01-20T01:03:33.242Z,83.00
2019-01-20T01:04:33.229Z,82.82
2019-01-20T01:05:33.218Z,82.79
2019-01-20T01:06:33.205Z,82.79
2019-01-20T01:07:33.216Z,82.68
2019-01-20T01:08:33.178Z,82.26
2019-01-20T01:09:33.160Z,82.47
2019-01-20T01:10:33.168Z,81.63
2019-01-20T01:11:33.139Z,81.56
2019-01-20T01:12:33.140Z,81.10
2019-01-20T01:13:33.247Z,81.00
2019-01-20T01:14:33.113Z,81.32
2019-01-20T01:15:33.111Z,80.90
2019-01-20T01:16:33.083Z,80.90
2019-01-20T01:17:33.082Z,81.88
2019-01-20T01:18:33.102Z,81.35
2019-01-20T01:19:33.059Z,82.20
2019-01-20T01:20:33.046Z,82.62
2019-01-20T01:21:33.034Z,82.82
2019-01-20T01:22:33.032Z,82.44
2019-01-20T01:23:33.053Z,82.55
2019-01-20T01:24:33.107Z,82.44
2019-01-20T01:25:32.994Z,82.55
2019-01-20T01:26:32.998Z,82.97
2019-01-20T01:27:32.978Z,82.97
2019-01-20T01:28:32.999Z,83.07
2019-01-20T01:29:32.947Z,82.44
2019-01-20T01:30:32.933Z,82.97
2019-01-20T01:31:32.923Z,83.43
2019-01-20T01:32:32.916Z,82.90
2019-01-20T01:33:32.902Z,83.11
2019-01-20T01:34:32.923Z,83.64
2019-01-20T01:35:32.889Z,83.39
2019-01-20T01:36:32.873Z,83.43
2019-01-20T01:37:32.891Z,83.64
2019-01-20T01:38:32.862Z,83.64
2019-01-20T01:39:32.841Z,83.22
2019-01-20T01:40:33.800Z,83.22
2019-01-20T01:41:39.064Z,82.90
2019-01-20T01:42:33.802Z,83.22
2019-01-20T01:43:32.841Z,82.79
2019-01-20T01:44:32.840Z,83.43
2019-01-20T01:45:32.778Z,83.64
2019-01-20T01:46:32.766Z,83.33
2019-01-20T01:47:32.748Z,83.43
2019-01-20T01:48:32.772Z,83.75
2019-01-20T01:49:32.773Z,84.48
2019-01-20T01:50:32.736Z,83.64
2019-01-20T01:51:32.707Z,84.27
2019-01-20T01:52:32.709Z,83.85
2019-01-20T01:53:32.717Z,84.59
2019-01-20T01:54:32.684Z,84.69
2019-01-20T01:55:32.712Z,84.59
2019-01-20T01:56:32.885Z,84.91
2019-01-20T01:57:32.652Z,84.91
2019-01-20T01:58:32.660Z,84.91
2019-01-20T01:59:32.623Z,85.11
2019-01-20T02:00:32.652Z,84.27
2019-01-20T02:01:32.597Z,84.69
2019-01-20T02:02:32.619Z,84.69
2019-01-20T02:03:32.588Z,84.80
2019-01-20T02:04:32.574Z,85.05
2019-01-20T02:05:32.587Z,85.26
2019-01-20T02:06:32.556Z,84.84
2019-01-20T02:07:32.534Z,85.36
2019-01-20T02:08:32.535Z,85.58
2019-01-20T02:09:32.513Z,85.26
2019-01-20T02:10:32.501Z,85.05
2019-01-20T02:11:32.521Z,85.68
2019-01-20T02:12:32.520Z,85.68
2019-01-20T02:13:32.473Z,85.26
2019-01-20T02:14:32.455Z,85.16
2019-01-20T02:15:32.457Z,85.79
2019-01-20T02:16:32.443Z,85.47
2019-01-20T02:17:32.509Z,85.61
2019-01-20T02:18:32.426Z,85.47
2019-01-20T02:19:32.415Z,85.79
2019-01-20T02:20:32.426Z,85.61
2019-01-20T02:21:32.399Z,85.51
2019-01-20T02:22:32.413Z,85.09
2019-01-20T02:23:32.401Z,85.30
2019-01-20T02:24:32.362Z,85.30
2019-01-20T02:25:32.335Z,85.61
2019-01-20T02:26:32.336Z,85.72
2019-01-20T02:27:32.319Z,85.30
2019-01-20T02:28:32.336Z,85.72
2019-01-20T02:29:32.555Z,85.72
2019-01-20T02:30:32.373Z,85.44
2019-01-20T02:31:32.752Z,85.55
2019-01-20T02:32:32.435Z,85.30
2019-01-20T02:33:32.614Z,85.30
2019-01-20T02:34:32.413Z,85.51
2019-01-20T02:35:32.310Z,85.72
2019-01-20T02:36:32.271Z,85.61
2019-01-20T02:37:32.213Z,85.72
2019-01-20T02:38:32.200Z,85.83
2019-01-20T02:39:32.204Z,85.72
2019-01-20T02:40:32.396Z,85.61
2019-01-20T02:41:32.175Z,85.61
2019-01-20T02:42:32.163Z,85.72
2019-01-20T02:43:32.150Z,85.51
2019-01-20T02:44:32.142Z,85.61
2019-01-20T02:45:32.130Z,85.30
2019-01-20T02:46:32.140Z,85.09
2019-01-20T02:47:32.104Z,85.09
2019-01-20T02:48:32.110Z,84.77
2019-01-20T02:49:32.089Z,84.88
2019-01-20T02:50:32.095Z,84.88
2019-01-20T02:51:32.118Z,84.88
2019-01-20T02:52:32.076Z,85.09
2019-01-20T02:53:32.042Z,85.41
2019-01-20T02:54:32.034Z,85.72
2019-01-20T02:55:32.020Z,85.51
2019-01-20T02:56:32.003Z,85.30
2019-01-20T02:57:32.164Z,85.51
2019-01-20T02:58:31.992Z,85.72
2019-01-20T02:59:31.975Z,85.76
2019-01-20T03:00:32.035Z,85.76
2019-01-20T03:01:31.965Z,85.55
2019-01-20T03:02:31.971Z,85.76
2019-01-20T03:03:31.928Z,85.83
2019-01-20T03:04:31.942Z,86.04
2019-01-20T03:05:31.905Z,85.86
2019-01-20T03:06:31.895Z,85.66
2019-01-20T03:07:31.895Z,85.86
2019-01-20T03:08:31.924Z,86.08
2019-01-20T03:09:31.869Z,86.40
2019-01-20T03:10:31.863Z,86.08
2019-01-20T03:11:31.846Z,87.24
2019-01-20T03:12:31.832Z,86.92
2019-01-20T03:13:31.849Z,86.71
2019-01-20T03:14:31.812Z,87.03
2019-01-20T03:15:31.796Z,87.24
2019-01-20T03:16:31.782Z,87.13
2019-01-20T03:17:31.785Z,86.71
2019-01-20T03:18:31.792Z,86.92
2019-01-20T03:19:31.882Z,86.92
2019-01-20T03:20:31.757Z,87.34
2019-01-20T03:21:31.748Z,87.55
2019-01-20T03:22:31.771Z,86.92
2019-01-20T03:23:31.699Z,86.92
2019-01-20T03:24:31.708Z,87.49
2019-01-20T03:25:31.708Z,87.34
2019-01-20T03:26:31.673Z,87.38
2019-01-20T03:27:31.669Z,86.65
2019-01-20T03:28:31.665Z,87.07
2019-01-20T03:29:31.642Z,87.60
2019-01-20T03:30:31.635Z,87.92
2019-01-20T03:31:31.652Z,87.81
2019-01-20T03:32:31.631Z,88.02
2019-01-20T03:33:31.610Z,87.81
2019-01-20T03:34:31.618Z,88.34
2019-01-20T03:35:31.566Z,88.34
2019-01-20T03:36:31.566Z,88.54
2019-01-20T03:37:31.614Z,88.34
2019-01-20T03:38:31.552Z,88.23
2019-01-20T03:39:31.574Z,88.54
2019-01-20T03:40:31.530Z,88.34
2019-01-20T03:41:31.524Z,88.40
2019-01-20T03:42:31.502Z,88.82
2019-01-20T03:43:31.604Z,88.44
2019-01-20T03:44:31.485Z,88.54
2019-01-20T03:45:31.465Z,88.44
2019-01-20T03:46:31.505Z,87.87
2019-01-20T03:47:31.483Z,88.44
2019-01-20T03:48:31.461Z,88.54
2019-01-20T03:49:31.433Z,88.61
2019-01-20T03:50:31.415Z,88.40
2019-01-20T03:51:31.406Z,88.51
2019-01-20T03:52:31.386Z,88.29
2019-01-20T03:53:31.407Z,88.29
2019-01-20T03:54:31.373Z,88.71
2019-01-20T03:55:31.365Z,88.51
2019-01-20T03:56:31.347Z,87.87
2019-01-20T03:57:31.338Z,87.77
2019-01-20T03:58:31.325Z,87.60
2019-01-20T03:59:31.348Z,88.02
2019-01-20T04:00:31.305Z,87.81
2019-01-20T04:01:31.317Z,88.19
2019-01-20T04:02:31.413Z,88.12
2019-01-20T04:03:31.278Z,87.17
2019-01-20T04:04:31.260Z,87.28
2019-01-20T04:05:31.366Z,87.17
2019-01-20T04:06:31.269Z,87.49
2019-01-20T04:07:31.223Z,87.63
2019-01-20T04:08:31.212Z,87.81
2019-01-20T04:09:31.197Z,87.28
2019-01-20T04:10:31.193Z,87.21
2019-01-20T04:11:31.177Z,88.17
2019-01-20T04:12:31.217Z,87.21
2019-01-20T04:13:31.258Z,87.95
2019-01-20T04:14:31.141Z,87.85
2019-01-20T04:15:31.132Z,87.95
2019-01-20T04:16:31.145Z,88.06
2019-01-20T04:17:31.109Z,87.95
2019-01-20T04:18:31.100Z,87.85
2019-01-20T04:19:31.091Z,87.74
2019-01-20T04:20:31.077Z,87.85
2019-01-20T04:21:31.072Z,88.06
2019-01-20T04:22:31.087Z,87.63
2019-01-20T04:23:31.063Z,87.42
2019-01-20T04:24:31.039Z,87.53
2019-01-20T04:25:31.020Z,87.95
2019-01-20T04:26:31.074Z,87.74
2019-01-20T04:27:31.001Z,87.74
2019-01-20T04:28:30.985Z,87.95
2019-01-20T04:29:31.012Z,87.49
2019-01-20T04:30:30.971Z,87.32
2019-01-20T04:31:30.963Z,86.75
2019-01-20T04:32:30.947Z,87.21
2019-01-20T04:33:30.936Z,87.07
2019-01-20T04:34:30.920Z,87.60
2019-01-20T04:35:30.937Z,87.00
2019-01-20T04:36:30.909Z,87.32
2019-01-20T04:37:30.899Z,88.17
2019-01-20T04:38:30.883Z,87.74
2019-01-20T04:39:30.869Z,87.95
2019-01-20T04:40:30.889Z,87.95
2019-01-20T04:41:30.843Z,88.48
2019-01-20T04:42:30.962Z,87.85
2019-01-20T04:43:30.849Z,88.90
2019-01-20T04:44:30.810Z,88.69
2019-01-20T04:45:30.945Z,88.37
2019-01-20T04:46:30.823Z,88.69
2019-01-20T04:47:30.778Z,88.37
2019-01-20T04:48:30.826Z,88.90
2019-01-20T04:49:30.755Z,89.01
2019-01-20T04:50:30.747Z,88.90
2019-01-20T04:51:30.751Z,88.69
2019-01-20T04:52:30.723Z,88.69
2019-01-20T04:53:30.710Z,88.37
2019-01-20T04:54:30.727Z,88.27
2019-01-20T04:55:30.686Z,88.48
2019-01-20T04:56:30.697Z,88.37
2019-01-20T04:57:30.667Z,88.59
2019-01-20T04:58:30.681Z,88.80
2019-01-20T04:59:30.638Z,88.62
2019-01-20T05:00:30.633Z,89.01
2019-01-20T05:01:30.637Z,88.94
2019-01-20T05:02:30.601Z,88.52
2019-01-20T05:03:30.590Z,88.52
2019-01-20T05:04:30.586Z,88.42
2019-01-20T05:05:30.593Z,88.73
2019-01-20T05:06:30.560Z,88.52
2019-01-20T05:07:30.550Z,88.52
2019-01-20T05:08:30.555Z,88.31
2019-01-20T05:09:30.618Z,88.31
2019-01-20T05:10:30.514Z,88.31
2019-01-20T05:11:30.528Z,88.73
2019-01-20T05:12:37.633Z,88.73
2019-01-20T05:13:31.476Z,88.62
2019-01-20T05:14:30.476Z,88.52
2019-01-20T05:15:30.483Z,88.73
2019-01-20T05:16:30.446Z,88.62
2019-01-20T05:17:30.436Z,88.94
2019-01-20T05:18:30.425Z,88.73
2019-01-20T05:19:30.433Z,88.20
2019-01-20T05:20:30.400Z,88.84
2019-01-20T05:21:30.400Z,88.52
2019-01-20T05:22:30.374Z,88.62
2019-01-20T05:23:30.374Z,88.42
2019-01-20T05:24:30.359Z,88.62
2019-01-20T05:25:30.562Z,88.73
2019-01-20T05:26:30.362Z,88.52
2019-01-20T05:27:30.325Z,88.31
2019-01-20T05:28:30.323Z,88.42
2019-01-20T05:29:30.300Z,88.94
2019-01-20T05:30:30.283Z,88.62
2019-01-20T05:31:30.272Z,88.84
2019-01-20T05:32:30.285Z,88.42
2019-01-20T05:33:30.273Z,88.42
2019-01-20T05:34:30.248Z,88.20
2019-01-20T05:35:30.229Z,87.99
2019-01-20T05:36:30.266Z,88.73
2019-01-20T05:37:30.232Z,88.67
2019-01-20T05:38:30.204Z,88.73
2019-01-20T05:39:30.193Z,88.67
2019-01-20T05:40:30.174Z,88.52
2019-01-20T05:41:30.273Z,88.31
2019-01-20T05:42:30.151Z,88.52
2019-01-20T05:43:30.166Z,88.42
2019-01-20T05:44:30.165Z,88.56
2019-01-20T05:45:30.130Z,88.35
2019-01-20T05:46:30.121Z,88.45
2019-01-20T05:47:30.102Z,88.45
2019-01-20T05:48:30.107Z,88.52
2019-01-20T05:49:30.075Z,88.24
2019-01-20T05:50:30.155Z,88.56
2019-01-20T05:51:30.082Z,88.56
2019-01-20T05:52:30.044Z,88.67
2019-01-20T05:53:30.031Z,88.56
2019-01-20T05:54:30.021Z,88.62
2019-01-20T05:55:30.014Z,88.94
2019-01-20T05:56:30.001Z,88.42
2019-01-20T05:57:30.012Z,88.62
2019-01-20T05:58:29.976Z,88.31
2019-01-20T05:59:29.990Z,88.20
2019-01-20T06:00:29.952Z,87.88
2019-01-20T06:01:29.937Z,87.99
2019-01-20T06:02:29.949Z,87.36
2019-01-20T06:03:29.911Z,87.88
2019-01-20T06:04:29.931Z,87.25
2019-01-20T06:05:29.944Z,87.46
2019-01-20T06:06:29.885Z,87.36
2019-01-20T06:07:29.871Z,87.04
2019-01-20T06:08:29.858Z,87.57
2019-01-20T06:09:29.887Z,87.04
2019-01-20T06:10:29.836Z,86.93
2019-01-20T06:11:29.849Z,87.15
2019-01-20T06:12:29.815Z,86.41
2019-01-20T06:13:29.818Z,86.51
2019-01-20T06:14:29.817Z,85.98
2019-01-20T06:15:29.806Z,86.09
2019-01-20T06:16:29.800Z,85.88
2019-01-20T06:17:29.758Z,86.44
2019-01-20T06:18:29.791Z,86.72
2019-01-20T06:19:29.747Z,86.55
2019-01-20T06:20:29.742Z,86.34
2019-01-20T06:21:29.729Z,86.83
2019-01-20T06:22:29.735Z,87.08
2019-01-20T06:23:29.693Z,86.98
2019-01-20T06:24:29.835Z,87.08
2019-01-20T06:25:29.668Z,86.83
2019-01-20T06:26:29.688Z,87.08
2019-01-20T06:27:29.659Z,87.18
2019-01-20T06:28:29.636Z,86.87
2019-01-20T06:29:29.624Z,86.44
2019-01-20T06:30:29.608Z,86.23
2019-01-20T06:31:29.667Z,86.51
2019-01-20T06:32:29.629Z,86.23
2019-01-20T06:33:29.603Z,86.13
2019-01-20T06:34:29.586Z,86.44
2019-01-20T06:35:29.554Z,86.76
2019-01-20T06:36:29.552Z,86.34
2019-01-20T06:37:30.315Z,86.76
2019-01-20T06:38:29.542Z,87.08
2019-01-20T06:39:29.546Z,87.08
2019-01-20T06:40:29.500Z,87.23
2019-01-20T06:41:29.489Z,87.29
2019-01-20T06:42:29.477Z,87.50
2019-01-20T06:43:29.460Z,87.40
2019-01-20T06:44:29.478Z,86.87
2019-01-20T06:45:29.551Z,86.66
2019-01-20T06:46:29.436Z,87.08
2019-01-20T06:47:29.423Z,87.29
2019-01-20T06:48:29.468Z,87.08
2019-01-20T06:49:29.394Z,86.87
2019-01-20T06:50:29.403Z,86.98
2019-01-20T06:51:29.386Z,86.69
2019-01-20T06:52:29.364Z,87.65
2019-01-20T06:53:29.358Z,87.54
2019-01-20T06:54:29.346Z,87.01
2019-01-20T06:55:29.376Z,87.43
2019-01-20T06:56:29.315Z,87.43
2019-01-20T06:57:29.324Z,87.54
2019-01-20T06:58:29.295Z,87.96
2019-01-20T06:59:29.295Z,87.86
2019-01-20T07:00:29.272Z,87.75
2019-01-20T07:01:29.283Z,87.54
2019-01-20T07:02:29.251Z,87.43
2019-01-20T07:03:29.241Z,87.75
2019-01-20T07:04:29.278Z,87.40
2019-01-20T07:05:29.218Z,87.33
2019-01-20T07:06:29.232Z,87.08
2019-01-20T07:07:29.266Z,87.40
2019-01-20T07:08:29.186Z,87.71
2019-01-20T07:09:29.170Z,86.98
2019-01-20T07:10:29.160Z,87.08
2019-01-20T07:11:29.171Z,86.98
2019-01-20T07:12:29.141Z,86.87
2019-01-20T07:13:29.135Z,87.08
2019-01-20T07:14:29.135Z,87.08
2019-01-20T07:15:29.101Z,87.18
2019-01-20T07:16:29.089Z,87.18
2019-01-20T07:17:29.108Z,86.87
2019-01-20T07:18:29.071Z,86.66
2019-01-20T07:19:29.054Z,86.34
2019-01-20T07:20:29.046Z,86.69
2019-01-20T07:21:29.075Z,87.18
2019-01-20T07:22:29.020Z,87.08
2019-01-20T07:23:29.051Z,86.98
2019-01-20T07:24:29.001Z,87.75
2019-01-20T07:25:29.031Z,87.12
2019-01-20T07:26:29.004Z,87.65
2019-01-20T07:27:28.968Z,87.54
2019-01-20T07:28:28.971Z,87.33
2019-01-20T07:29:28.953Z,87.33
2019-01-20T07:30:28.928Z,87.33
2019-01-20T07:31:28.917Z,87.43
2019-01-20T07:32:28.934Z,87.33
2019-01-20T07:33:28.894Z,87.29
2019-01-20T07:34:28.887Z,87.50
2019-01-20T07:35:28.899Z,87.86
2019-01-20T07:36:28.865Z,86.87
2019-01-20T07:37:28.848Z,86.98
2019-01-20T07:38:28.841Z,86.98
2019-01-20T07:39:28.827Z,86.87
2019-01-20T07:40:28.819Z,86.91
2019-01-20T07:41:28.826Z,87.08
2019-01-20T07:42:28.794Z,86.91
2019-01-20T07:43:28.808Z,87.01
2019-01-20T07:44:28.933Z,87.01
2019-01-20T07:45:28.762Z,86.80
2019-01-20T07:46:28.765Z,87.65
2019-01-20T07:47:28.842Z,87.29
2019-01-20T07:48:28.761Z,87.82
2019-01-20T07:49:28.711Z,87.29
2019-01-20T07:50:28.704Z,87.29
2019-01-20T07:51:28.696Z,87.93
2019-01-20T07:52:28.684Z,88.13
2019-01-20T07:53:28.677Z,88.13
2019-01-20T07:54:28.685Z,88.24
2019-01-20T07:55:28.649Z,88.24
2019-01-20T07:56:28.635Z,87.93
2019-01-20T07:57:28.625Z,88.03
2019-01-20T07:58:28.617Z,87.93
2019-01-20T07:59:28.607Z,87.93
2019-01-20T08:00:28.634Z,88.03
2019-01-20T08:01:28.581Z,88.24
2019-01-20T08:02:28.570Z,87.40
2019-01-20T08:03:28.564Z,87.82
2019-01-20T08:04:28.563Z,87.29
2019-01-20T08:05:28.564Z,87.71
2019-01-20T08:06:28.527Z,87.50
2019-01-20T08:07:28.513Z,86.76
2019-01-20T08:08:28.505Z,87.08
2019-01-20T08:09:29.321Z,86.87
2019-01-20T08:10:28.478Z,87.04
2019-01-20T08:11:28.499Z,87.36
2019-01-20T08:12:28.454Z,87.57
2019-01-20T08:13:28.451Z,87.46
2019-01-20T08:14:28.463Z,86.72
2019-01-20T08:15:28.421Z,87.25
2019-01-20T08:16:28.443Z,86.83
2019-01-20T08:17:28.501Z,86.83
2019-01-20T08:18:28.386Z,87.04
2019-01-20T08:19:28.374Z,87.04
2019-01-20T08:20:28.380Z,87.57
2019-01-20T08:21:28.375Z,87.36
2019-01-20T08:22:28.374Z,87.57
2019-01-20T08:23:28.368Z,87.36
2019-01-20T08:24:28.324Z,87.25
2019-01-20T08:25:28.315Z,88.20
2019-01-20T08:26:28.303Z,88.06
2019-01-20T08:27:28.287Z,90.49
2019-01-20T08:28:28.308Z,91.30
2019-01-20T08:29:28.266Z,91.89
2019-01-20T08:30:28.319Z,93.15
2019-01-20T08:31:28.868Z,92.79
2019-01-20T08:32:28.247Z,92.48
2019-01-20T08:33:28.339Z,91.74
2019-01-20T08:34:28.210Z,91.63
2019-01-20T08:35:28.205Z,90.69
2019-01-20T08:36:28.194Z,90.58
2019-01-20T08:37:28.993Z,90.26
2019-01-20T08:38:28.172Z,89.03
2019-01-20T08:39:28.187Z,88.46
2019-01-20T08:40:28.146Z,88.46
2019-01-20T08:41:28.142Z,88.78
2019-01-20T08:42:28.126Z,87.66
2019-01-20T08:43:31.963Z,87.87
2019-01-20T08:44:28.127Z,87.77
2019-01-20T08:45:28.093Z,87.66
2019-01-20T08:46:28.155Z,87.34
2019-01-20T08:47:28.080Z,86.82
2019-01-20T08:48:28.065Z,87.24
2019-01-20T08:49:28.080Z,86.92
2019-01-20T08:50:28.040Z,86.92
2019-01-20T08:51:28.037Z,87.66
2019-01-20T08:52:28.022Z,88.89
2019-01-20T08:53:28.480Z,90.22
2019-01-20T08:54:28.018Z,91.44
2019-01-20T08:55:28.011Z,91.61
2019-01-20T08:56:27.981Z,92.35
2019-01-20T08:57:27.960Z,91.68
2019-01-20T08:58:27.963Z,91.26
2019-01-20T08:59:27.954Z,91.47
2019-01-20T09:00:27.974Z,91.26
2019-01-20T09:01:27.916Z,90.31
2019-01-20T09:02:27.918Z,89.25
2019-01-20T09:03:27.900Z,88.73
2019-01-20T09:04:27.886Z,88.31
2019-01-20T09:05:27.877Z,87.19
2019-01-20T09:06:27.911Z,86.87
2019-01-20T09:07:27.972Z,87.29
2019-01-20T09:08:27.859Z,86.45
2019-01-20T09:09:27.843Z,86.87
2019-01-20T09:10:27.842Z,85.92
2019-01-20T09:11:27.847Z,85.82
2019-01-20T09:12:27.809Z,85.71
2019-01-20T09:13:27.822Z,86.03
2019-01-20T09:14:27.800Z,85.46
2019-01-20T09:15:27.776Z,84.83
2019-01-20T09:16:27.790Z,85.36
2019-01-20T09:17:27.747Z,85.04
2019-01-20T09:18:28.829Z,85.46
2019-01-20T09:19:27.730Z,85.25
2019-01-20T09:20:27.719Z,85.14
2019-01-20T09:21:27.738Z,85.46
2019-01-20T09:22:27.704Z,84.94
2019-01-20T09:23:27.722Z,85.67
2019-01-20T09:24:27.673Z,84.69
2019-01-20T09:25:27.689Z,84.69
2019-01-20T09:26:27.794Z,84.47
2019-01-20T09:27:27.636Z,84.27
2019-01-20T09:28:27.626Z,85.00
2019-01-20T09:29:27.657Z,83.84
2019-01-20T09:30:27.608Z,83.81
2019-01-20T09:31:27.602Z,83.81
2019-01-20T09:32:27.585Z,84.54
2019-01-20T09:33:27.572Z,83.59
2019-01-20T09:34:27.599Z,83.17
2019-01-20T09:35:27.557Z,83.17
2019-01-20T09:36:27.544Z,83.28
2019-01-20T09:37:27.540Z,82.82
2019-01-20T09:38:27.519Z,83.03
2019-01-20T09:39:27.531Z,84.15
2019-01-20T09:40:27.520Z,83.41
2019-01-20T09:41:27.481Z,82.68
2019-01-20T09:42:27.487Z,82.46
2019-01-20T09:43:27.480Z,82.64
2019-01-20T09:44:27.454Z,81.38
2019-01-20T09:45:27.444Z,81.16
2019-01-20T09:46:27.456Z,80.92
2019-01-20T09:47:27.455Z,80.22
2019-01-20T09:48:27.413Z,79.45
2019-01-20T09:49:27.414Z,80.18
2019-01-20T09:50:27.490Z,79.35
2019-01-20T09:51:27.389Z,79.45
2019-01-20T09:52:27.364Z,79.24
2019-01-20T09:53:27.392Z,79.13
2019-01-20T09:54:27.349Z,78.50
2019-01-20T09:55:27.369Z,77.66
2019-01-20T09:56:27.361Z,77.76
2019-01-20T09:57:27.317Z,77.94
2019-01-20T09:58:27.305Z,77.73
2019-01-20T09:59:27.297Z,78.05
2019-01-20T10:00:27.278Z,77.52
2019-01-20T10:01:27.271Z,77.28
2019-01-20T10:02:27.297Z,77.59
2019-01-20T10:03:27.315Z,76.96
2019-01-20T10:04:27.244Z,77.00
2019-01-20T10:05:27.239Z,77.28
2019-01-20T10:06:27.365Z,78.01
2019-01-20T10:07:27.206Z,77.28
2019-01-20T10:08:27.263Z,79.44
2019-01-20T10:09:27.187Z,79.34
2019-01-20T10:10:28.247Z,79.62
2019-01-20T10:11:27.165Z,79.10
2019-01-20T10:12:27.146Z,78.01
2019-01-20T10:13:27.146Z,76.89
2019-01-20T10:14:27.168Z,75.21
2019-01-20T10:15:27.123Z,74.65
2019-01-20T10:16:27.112Z,74.55
2019-01-20T10:17:27.106Z,75.07
2019-01-20T10:18:27.131Z,74.65
2019-01-20T10:19:27.074Z,74.76
2019-01-20T10:20:27.072Z,74.55
2019-01-20T10:21:27.064Z,74.44
2019-01-20T10:22:28.297Z,74.13
2019-01-20T10:23:27.030Z,73.39
2019-01-20T10:24:27.065Z,73.50
2019-01-20T10:25:27.013Z,73.71
2019-01-20T10:26:27.003Z,73.19
2019-01-20T10:27:26.989Z,72.77
2019-01-20T10:28:27.020Z,73.29
2019-01-20T10:29:26.970Z,73.71
2019-01-20T10:30:27.004Z,73.08
2019-01-20T10:31:26.964Z,73.50
2019-01-20T10:32:26.934Z,73.19
2019-01-20T10:33:26.921Z,72.52
2019-01-20T10:34:26.909Z,72.84
2019-01-20T10:35:26.966Z,72.11
2019-01-20T10:36:26.920Z,72.31
2019-01-20T10:37:26.883Z,72.11
2019-01-20T10:38:26.870Z,71.97
2019-01-20T10:39:26.859Z,72.39
2019-01-20T10:40:26.850Z,72.52
2019-01-20T10:41:26.837Z,71.86
2019-01-20T10:42:26.849Z,71.44
2019-01-20T10:43:26.892Z,71.13
2019-01-20T10:44:26.807Z,71.03
2019-01-20T10:45:26.792Z,70.78
2019-01-20T10:46:26.815Z,70.15
2019-01-20T10:47:26.802Z,69.11
2019-01-20T10:48:26.807Z,68.48
2019-01-20T10:49:26.751Z,68.59
2019-01-20T10:50:26.744Z,68.27
2019-01-20T10:51:26.728Z,67.96
2019-01-20T10:52:26.732Z,68.13
2019-01-20T10:53:26.712Z,67.93
2019-01-20T10:54:26.728Z,68.48
2019-01-20T10:55:26.690Z,68.24
2019-01-20T10:56:26.681Z,68.34
2019-01-20T10:57:26.666Z,67.82
2019-01-20T10:58:26.712Z,67.09
2019-01-20T10:59:26.800Z,65.62
2019-01-20T11:00:26.626Z,64.97
2019-01-20T11:01:26.617Z,64.89
2019-01-20T11:02:26.622Z,64.54
2019-01-20T11:03:26.606Z,64.76
2019-01-20T11:04:26.622Z,64.65
2019-01-20T11:05:30.827Z,64.54
2019-01-20T11:06:27.568Z,64.03
2019-01-20T11:07:26.555Z,64.73
2019-01-20T11:08:26.562Z,64.73
2019-01-20T11:09:26.532Z,64.51
2019-01-20T11:10:26.527Z,64.62
2019-01-20T11:11:26.526Z,64.62
2019-01-20T11:12:26.508Z,64.62
2019-01-20T11:13:26.506Z,64.51
2019-01-20T11:14:26.481Z,64.94
2019-01-20T11:15:26.476Z,64.94
2019-01-20T11:16:26.504Z,64.83
2019-01-20T11:17:26.459Z,64.94
2019-01-20T11:18:26.437Z,64.59
2019-01-20T11:19:26.424Z,64.94
2019-01-20T11:20:26.429Z,65.36
2019-01-20T11:21:26.404Z,65.43
2019-01-20T11:22:26.415Z,65.64
2019-01-20T11:23:26.401Z,65.43
2019-01-20T11:24:26.389Z,65.22
2019-01-20T11:25:26.356Z,65.19
2019-01-20T11:26:26.353Z,64.98
2019-01-20T11:27:26.357Z,64.70
2019-01-20T11:28:26.336Z,64.80
2019-01-20T11:29:26.497Z,64.77
2019-01-20T11:30:26.306Z,63.93
2019-01-20T11:31:26.292Z,63.93
2019-01-20T11:32:26.297Z,63.52
2019-01-20T11:33:26.290Z,64.46
2019-01-20T11:34:26.259Z,63.93
2019-01-20T11:35:26.249Z,63.59
2019-01-20T11:36:26.238Z,62.48
2019-01-20T11:37:26.223Z,62.05
2019-01-20T11:38:26.215Z,62.16
2019-01-20T11:39:26.230Z,61.82
2019-01-20T11:40:26.200Z,62.86
2019-01-20T11:41:26.182Z,61.51
2019-01-20T11:42:26.179Z,60.88
2019-01-20T11:43:26.195Z,61.19
2019-01-20T11:44:26.173Z,60.98
2019-01-20T11:45:26.182Z,61.92
2019-01-20T11:46:26.127Z,62.13
2019-01-20T11:47:26.112Z,62.21
2019-01-20T11:48:26.102Z,62.21
2019-01-20T11:49:26.094Z,61.27
2019-01-20T11:50:26.121Z,61.82
2019-01-20T11:51:26.086Z,62.10
2019-01-20T11:52:26.062Z,62.10
2019-01-20T11:53:26.050Z,62.10
2019-01-20T11:54:26.041Z,62.10
2019-01-20T11:55:26.035Z,62.00
2019-01-20T11:56:26.015Z,62.52
2019-01-20T11:57:26.029Z,62.62
2019-01-20T11:58:26.000Z,62.52
2019-01-20T11:59:26.031Z,62.84
2019-01-20T12:00:25.975Z,61.90
2019-01-20T12:01:25.988Z,61.06
2019-01-20T12:02:25.974Z,61.79
2019-01-20T12:03:25.969Z,60.51
2019-01-20T12:04:25.999Z,60.41
2019-01-20T12:05:25.920Z,60.41
2019-01-20T12:06:26.024Z,60.93
2019-01-20T12:07:25.953Z,60.61
2019-01-20T12:08:30.611Z,60.93
2019-01-20T12:09:26.879Z,61.55
2019-01-20T12:10:25.864Z,60.93
2019-01-20T12:11:25.895Z,60.85
2019-01-20T12:12:25.852Z,61.03
2019-01-20T12:13:26.509Z,61.55
2019-01-20T12:14:25.825Z,61.24
2019-01-20T12:15:25.814Z,60.82
2019-01-20T12:16:25.801Z,60.61
2019-01-20T12:17:25.790Z,60.80
2019-01-20T12:18:25.771Z,60.17
2019-01-20T12:19:25.834Z,60.90
2019-01-20T12:20:25.756Z,60.06
2019-01-20T12:21:25.753Z,61.00
2019-01-20T12:22:25.729Z,59.96
2019-01-20T12:23:25.725Z,58.71
2019-01-20T12:24:25.714Z,58.68
2019-01-20T12:25:26.343Z,59.00
2019-01-20T12:26:25.697Z,59.20
2019-01-20T12:27:25.681Z,58.79
2019-01-20T12:28:25.679Z,58.26
2019-01-20T12:29:25.809Z,58.45
2019-01-20T12:30:25.674Z,57.71
2019-01-20T12:31:25.631Z,57.71
2019-01-20T12:32:25.618Z,57.82
2019-01-20T12:33:25.617Z,58.32
2019-01-20T12:34:25.625Z,58.65
2019-01-20T12:35:25.601Z,59.07
2019-01-20T12:36:25.622Z,59.49
2019-01-20T12:37:25.570Z,59.17
2019-01-20T12:38:25.610Z,58.73
2019-01-20T12:39:25.540Z,58.00
2019-01-20T12:40:25.533Z,58.42
2019-01-20T12:41:25.643Z,61.13
2019-01-20T12:42:25.511Z,63.39
2019-01-20T12:43:25.499Z,62.04
2019-01-20T12:44:31.413Z,60.78
2019-01-20T12:45:26.473Z,58.89
2019-01-20T12:46:25.479Z,58.16
2019-01-20T12:47:25.453Z,57.75
2019-01-20T12:48:25.452Z,56.70
2019-01-20T12:49:25.459Z,56.70
2019-01-20T12:50:25.453Z,57.12
2019-01-20T12:51:28.689Z,56.81
2019-01-20T12:52:25.397Z,56.39